Time;durP1;ratioP1;P1;durP2;ratioP2;P2;SDS_P1;SDS_P2;PMS_P1;PMS_P2;Temp;Humidity;BMP_temperature;BMP_pressure;BME280_temperature;BME280_humidity;BME280_pressure;Samples;Min_cycle;Max_cycle;Signal;HPM_P1;HPM_P2
2023/07/25 00:01:13;;;;;;;9.90;5.10;;;;;;;23.35;100.00;99658.13;4897550;29;20392;-76
2023/07/25 00:03:41;;;;;;;10.45;5.03;;;;;;;23.32;100.00;99660.91;4898157;29;20045;-76
2023/07/25 00:06:09;;;;;;;6.10;4.57;;;;;;;23.52;100.00;99655.81;4897149;29;20067;-76
2023/07/25 01:03:35;;;;;;;10.93;5.82;;;;;;;23.56;100.00;99636.31;4903798;29;20045;-75
2023/07/25 01:06:05;;;;;;;10.10;6.30;;;;;;;23.71;100.00;99634.34;4913554;29;20060;-75
2023/07/25 01:08:33;;;;;;;10.43;5.97;;;;;;;23.46;100.00;99621.09;4915376;29;20056;-75
2023/07/25 01:11:01;;;;;;;12.18;6.30;;;;;;;23.34;100.00;99603.50;4915757;29;20047;-75
2023/07/25 01:13:28;;;;;;;12.38;6.28;;;;;;;23.28;100.00;99602.25;4916090;29;20051;-75
2023/07/25 01:15:57;;;;;;;10.50;6.78;;;;;;;23.30;100.00;99594.28;4915814;29;20063;-75
2023/07/25 01:18:25;;;;;;;11.18;6.20;;;;;;;23.16;100.00;99581.03;4898178;29;20044;-75
2023/07/25 01:20:53;;;;;;;12.23;6.35;;;;;;;23.31;100.00;99587.53;4899042;29;20047;-75
2023/07/25 01:23:22;;;;;;;7.93;5.70;;;;;;;23.41;100.00;99587.97;4894848;29;20048;-75
2023/07/25 01:25:49;;;;;;;9.25;5.22;;;;;;;23.37;100.00;99579.59;4894536;29;20052;-75
2023/07/25 01:28:17;;;;;;;8.60;4.68;;;;;;;23.56;100.00;99578.44;4915360;29;20044;-75
2023/07/25 01:30:45;;;;;;;8.38;5.43;;;;;;;23.65;100.00;99591.25;4915829;29;20047;-75
2023/07/25 01:33:13;;;;;;;10.32;5.47;;;;;;;23.48;100.00;99583.22;4915335;29;20055;-75
2023/07/25 01:35:41;;;;;;;11.25;5.97;;;;;;;23.56;100.00;99575.66;4898680;29;20491;-75
2023/07/25 01:38:09;;;;;;;11.30;6.15;;;;;;;23.62;100.00;99574.06;4898275;29;20052;-75
2023/07/25 01:40:39;;;;;;;11.77;7.47;;;;;;;23.70;100.00;99583.28;4898479;29;20056;-75
2023/07/25 01:43:08;;;;;;;14.90;7.68;;;;;;;23.48;100.00;99569.28;4914603;29;20085;-75
2023/07/25 01:45:36;;;;;;;13.57;6.70;;;;;;;23.57;100.00;99559.72;4897984;29;20060;-75
2023/07/25 01:48:04;;;;;;;12.38;7.65;;;;;;;23.72;100.00;99566.94;4914752;29;20052;-74
2023/07/25 01:50:32;;;;;;;11.68;6.20;;;;;;;23.89;100.00;99558.97;4915025;29;20052;-75
2023/07/25 01:53:00;;;;;;;15.35;6.95;;;;;;;23.76;100.00;99552.97;4918869;29;20047;-75
2023/07/25 01:55:27;;;;;;;10.00;6.50;;;;;;;23.72;100.00;99550.19;4919008;29;20403;-75
2023/07/25 01:57:55;;;;;;;11.68;5.95;;;;;;;23.68;100.00;99545.78;4901612;29;20063;-75
2023/07/25 02:00:23;;;;;;;14.10;7.13;;;;;;;23.80;100.00;99539.03;4902226;29;20059;-75
2023/07/25 02:02:51;;;;;;;10.32;6.97;;;;;;;23.68;100.00;99529.81;4916490;29;20051;-75
2023/07/25 02:05:19;;;;;;;12.95;6.55;;;;;;;23.60;100.00;99526.22;4918230;29;20406;-75
2023/07/25 02:07:47;;;;;;;10.88;6.22;;;;;;;23.66;100.00;99523.03;4901819;29;20419;-75
2023/07/25 02:10:15;;;;;;;11.75;6.78;;;;;;;23.68;100.00;99515.03;4918450;29;20052;-73
2023/07/25 02:12:44;;;;;;;10.73;5.97;;;;;;;23.75;100.00;99521.44;4918156;29;20056;-73
2023/07/25 02:15:12;;;;;;;12.32;6.20;;;;;;;23.78;100.00;99514.28;4918549;29;20040;-75
2023/07/25 02:17:39;;;;;;;13.30;7.00;;;;;;;23.57;100.00;99504.69;4885785;29;20075;-75
2023/07/25 02:20:08;;;;;;;13.18;7.15;;;;;;;23.59;100.00;99496.69;4917671;29;20064;-75
2023/07/25 02:22:35;;;;;;;12.07;6.95;;;;;;;23.61;100.00;99483.13;4918720;29;20411;-76
2023/07/25 02:25:04;;;;;;;12.43;6.88;;;;;;;23.48;100.00;99476.31;4917902;29;20048;-76
2023/07/25 02:27:31;;;;;;;13.68;6.95;;;;;;;23.37;100.00;99422.47;4918208;29;20527;-78
2023/07/25 02:29:59;;;;;;;11.73;7.38;;;;;;;23.30;100.00;99362.63;4901057;29;20427;-76
2023/07/25 02:32:27;;;;;;;13.82;7.18;;;;;;;23.50;100.00;99409.72;4918383;29;20052;-77
2023/07/25 02:34:55;;;;;;;11.45;7.13;;;;;;;23.50;100.00;99440.44;4918384;29;20036;-75
2023/07/25 02:37:23;;;;;;;12.55;7.47;;;;;;;23.65;100.00;99426.50;4918669;29;20083;-76
2023/07/25 02:39:51;;;;;;;12.88;7.22;;;;;;;23.58;100.00;99422.50;4901159;29;20060;-75
2023/07/25 02:42:18;;;;;;;17.67;7.88;;;;;;;23.52;100.00;99431.66;4918420;29;20411;-76
2023/07/25 02:44:46;;;;;;;12.60;7.20;;;;;;;23.56;100.00;99438.06;4900474;29;20073;-76
2023/07/25 02:47:14;;;;;;;12.13;7.28;;;;;;;23.45;100.00;99433.25;4917538;29;20056;-76
2023/07/25 02:49:42;;;;;;;12.80;8.38;;;;;;;23.40;100.00;99422.47;4917604;29;20056;-76
2023/07/25 02:52:12;;;;;;;13.32;7.78;;;;;;;23.42;100.00;99424.88;4888990;29;20505;-76
2023/07/25 02:54:40;;;;;;;12.73;7.85;;;;;;;23.39;100.00;99409.72;4901384;29;20056;-76
2023/07/25 02:57:08;;;;;;;10.13;6.85;;;;;;;23.53;100.00;99413.72;4901092;29;20048;-75
2023/07/25 02:59:35;;;;;;;12.00;7.45;;;;;;;23.44;100.00;99392.56;4900453;29;20491;-76
2023/07/25 03:02:04;;;;;;;11.95;7.18;;;;;;;23.67;100.00;99404.53;4917045;29;20117;-75
2023/07/25 03:04:31;;;;;;;12.23;7.97;;;;;;;23.52;100.00;99398.97;4900267;29;20411;-76
2023/07/25 03:06:59;;;;;;;12.93;7.68;;;;;;;23.27;100.00;99391.31;4917500;29;20419;-76
2023/07/25 03:09:27;;;;;;;12.40;8.48;;;;;;;23.47;100.00;99369.44;4917041;29;20052;-74
2023/07/25 03:11:55;;;;;;;11.90;7.47;;;;;;;23.56;100.00;99362.66;4917256;29;20558;-76
2023/07/25 03:14:23;;;;;;;10.98;7.07;;;;;;;23.50;100.00;99370.63;4900087;29;20060;-75
2023/07/25 03:16:51;;;;;;;11.18;7.63;;;;;;;23.62;100.00;99361.06;4898742;29;20063;-76
2023/07/25 03:19:19;;;;;;;20.42;8.95;;;;;;;23.38;100.00;99357.88;4898442;29;20053;-75
2023/07/25 03:21:46;;;;;;;14.05;7.80;;;;;;;23.43;100.00;99357.47;4898361;29;20061;-75
2023/07/25 03:24:14;;;;;;;16.83;8.77;;;;;;;23.46;100.00;99295.25;4913165;29;20056;-76
2023/07/25 03:26:43;;;;;;;13.32;8.10;;;;;;;23.57;100.00;99289.69;4916670;29;20052;-76
2023/07/25 03:29:10;;;;;;;16.55;8.82;;;;;;;23.35;100.00;99353.06;4899501;29;20434;-76
2023/07/25 03:31:38;;;;;;;14.77;8.23;;;;;;;23.44;100.00;99458.75;4900034;29;20052;-76
2023/07/25 03:34:07;;;;;;;19.23;9.25;;;;;;;23.28;100.00;99520.50;4917059;29;20056;-77
2023/07/25 03:36:35;;;;;;;14.32;7.88;;;;;;;23.67;100.00;99647.50;4914740;29;20056;-78
2023/07/25 03:39:02;;;;;;;16.88;9.25;;;;;;;23.18;100.00;99720.19;4899719;29;20052;-76
2023/07/25 03:41:30;;;;;;;13.40;6.60;;;;;;;23.01;100.00;99806.16;4916627;29;20075;-79
2023/07/25 03:43:59;;;;;;;7.38;3.95;;;;;;;23.14;100.00;99733.31;4899830;29;20052;-78
2023/07/25 03:46:27;;;;;;;7.75;2.67;;;;;;;22.64;100.00;99639.69;4908873;29;20044;-76
2023/07/25 03:48:55;;;;;;;4.75;2.17;;;;;;;22.32;100.00;99640.16;4897322;29;20723;-75
2023/07/25 03:51:23;;;;;;;4.20;2.13;;;;;;;22.58;100.00;99653.16;4903074;29;20052;-76
2023/07/25 03:53:50;;;;;;;2.65;1.90;;;;;;;22.51;100.00;99642.75;4889955;29;20056;-76
2023/07/25 03:56:18;;;;;;;6.60;2.65;;;;;;;22.53;100.00;99623.66;4904395;29;20070;-76
2023/07/25 03:58:46;;;;;;;4.18;2.17;;;;;;;22.78;100.00;99633.44;4911435;29;20063;-76
2023/07/25 04:01:14;;;;;;;5.40;2.17;;;;;;;22.91;100.00;99625.53;4916742;29;20066;-76
2023/07/25 04:03:41;;;;;;;2.97;2.20;;;;;;;22.87;100.00;99630.31;4916646;29;20063;-76
2023/07/25 04:06:10;;;;;;;4.55;2.70;;;;;;;22.63;100.00;99626.94;4916581;29;20052;-76
2023/07/25 04:08:37;;;;;;;6.43;2.80;;;;;;;22.51;100.00;99622.41;4916446;29;20121;-76
2023/07/25 04:11:05;;;;;;;2.70;2.35;;;;;;;22.49;100.00;99606.06;4896508;29;20044;-76
2023/07/25 04:13:33;;;;;;;5.55;2.53;;;;;;;22.51;100.00;99614.88;4880328;29;20416;-76
2023/07/25 04:16:01;;;;;;;6.78;2.70;;;;;;;22.47;100.00;99600.09;4909990;29;20063;-75
2023/07/25 04:18:29;;;;;;;5.60;2.80;;;;;;;22.33;100.00;99591.63;4899782;29;20036;-76
2023/07/25 04:20:57;;;;;;;3.78;2.28;;;;;;;22.40;100.00;99578.53;4914843;29;20059;-81
2023/07/25 04:23:29;;;;;;;3.92;2.33;;;;;;;22.23;100.00;99577.19;4914712;29;20052;-74
2023/07/25 04:25:57;;;;;;;6.70;2.80;;;;;;;22.45;100.00;99587.72;4915060;29;20472;-74
2023/07/25 04:28:25;;;;;;;2.63;2.35;;;;;;;22.52;100.00;99598.94;4891357;29;20064;-75
2023/07/25 04:30:52;;;;;;;2.88;2.38;;;;;;;22.48;100.00;99589.75;4906367;29;20059;-75
2023/07/25 04:33:20;;;;;;;2.63;2.03;;;;;;;22.31;100.00;99588.41;4916309;29;20403;-76
2023/07/25 04:35:48;;;;;;;4.25;2.95;;;;;;;22.27;100.00;99574.44;4893054;29;20496;-75
2023/07/25 04:38:16;;;;;;;2.47;2.08;;;;;;;22.33;100.00;99569.31;4899021;29;20403;-74
2023/07/25 04:40:44;;;;;;;4.70;2.67;;;;;;;22.48;100.00;99582.16;4898921;29;20059;-75
2023/07/25 04:43:12;;;;;;;6.20;2.90;;;;;;;22.53;100.00;99601.38;4898690;29;20056;-76
2023/07/25 04:45:40;;;;;;;4.78;2.63;;;;;;;22.65;100.00;99593.88;4896440;29;20044;-75
2023/07/25 04:48:08;;;;;;;3.25;2.35;;;;;;;22.60;100.00;99597.84;4914557;29;20060;-75
2023/07/25 04:50:36;;;;;;;4.15;3.15;;;;;;;22.70;100.00;99587.94;4915845;29;20052;-75
2023/07/25 04:53:04;;;;;;;3.15;2.35;;;;;;;22.51;100.00;99573.06;4899084;29;20048;-74
2023/07/25 04:55:32;;;;;;;3.75;2.67;;;;;;;22.49;100.00;99544.75;4914966;29;20051;-77
2023/07/25 04:58:00;;;;;;;4.78;2.90;;;;;;;22.72;100.00;99531.78;4898835;29;20056;-74
2023/07/25 05:00:28;;;;;;;4.57;2.83;;;;;;;22.53;100.00;99534.47;4915006;29;20063;-75
2023/07/25 05:02:57;;;;;;;5.75;3.05;;;;;;;22.48;100.00;99518.06;4914686;29;20416;-76
2023/07/25 05:05:25;;;;;;;6.07;3.05;;;;;;;22.37;100.00;99503.25;4915646;29;20063;-75
2023/07/25 05:07:53;;;;;;;5.97;3.00;;;;;;;22.47;100.00;99479.41;4914947;29;20063;-75
2023/07/25 05:10:20;;;;;;;4.25;2.90;;;;;;;22.40;100.00;99469.81;4914918;29;20121;-75
2023/07/25 05:12:48;;;;;;;3.40;3.00;;;;;;;22.49;100.00;99469.47;4898130;29;20055;-77
2023/07/25 05:15:16;;;;;;;8.43;3.53;;;;;;;22.62;100.00;99466.41;4915331;29;20052;-79
2023/07/25 05:17:44;;;;;;;6.07;3.13;;;;;;;22.83;100.00;99443.41;4915256;29;20411;-79
2023/07/25 05:20:12;;;;;;;5.07;3.50;;;;;;;22.63;100.00;99445.72;4915276;29;20381;-78
2023/07/25 05:22:40;;;;;;;5.40;3.30;;;;;;;22.74;100.00;99460.50;4915675;29;20040;-79
2023/07/25 05:25:08;;;;;;;6.10;3.30;;;;;;;22.50;100.00;99451.59;4898784;29;20052;-78
2023/07/25 05:27:36;;;;;;;6.55;2.80;;;;;;;22.71;100.00;99486.38;4917438;29;20056;-78
2023/07/25 05:30:04;;;;;;;5.85;2.90;;;;;;;22.81;100.00;99493.19;4916004;29;20059;-75
2023/07/25 05:32:33;;;;;;;5.25;3.03;;;;;;;22.64;100.00;99470.41;4908090;29;20040;-77
2023/07/25 05:35:04;;;;;;;5.72;3.20;;;;;;;22.83;100.00;99451.78;4931794;29;20494;-76
2023/07/25 05:37:37;;;;;;;4.75;3.05;;;;;;;22.98;100.00;99437.88;4936633;29;20055;-78
2023/07/25 05:40:05;;;;;;;5.60;2.85;;;;;;;23.12;100.00;99429.53;4918677;29;20064;-77
2023/07/25 05:42:34;;;;;;;6.18;3.40;;;;;;;23.13;100.00;99463.84;4917376;29;20060;-76
2023/07/25 05:45:01;;;;;;;4.13;2.60;;;;;;;23.18;100.00;99488.56;4918638;29;20063;-77
2023/07/25 05:47:30;;;;;;;4.38;3.00;;;;;;;23.17;100.00;99462.66;4919353;29;20510;-77
2023/07/25 05:49:58;;;;;;;6.32;3.17;;;;;;;23.27;100.00;99452.72;4918236;29;20056;-77
2023/07/25 05:52:26;;;;;;;4.38;2.70;;;;;;;23.33;100.00;99479.09;4918069;29;20060;-77
2023/07/25 05:54:54;;;;;;;5.18;3.17;;;;;;;23.12;100.00;99527.19;4918655;29;20048;-76
2023/07/25 05:57:21;;;;;;;5.38;2.83;;;;;;;23.40;100.00;99594.75;4918598;29;20048;-77
2023/07/25 05:59:49;;;;;;;5.63;3.70;;;;;;;23.31;100.00;99562.41;4917895;29;20055;-77
2023/07/25 06:02:17;;;;;;;4.30;2.70;;;;;;;23.22;100.00;99551.56;4918165;29;20052;-77
2023/07/25 06:04:46;;;;;;;4.75;3.08;;;;;;;23.15;100.00;99550.72;4919677;29;20056;-77
2023/07/25 06:07:15;;;;;;;4.90;3.10;;;;;;;23.03;100.00;99540.72;4920096;29;20699;-77
2023/07/25 06:09:43;;;;;;;8.82;3.42;;;;;;;23.11;100.00;99530.41;4917768;29;20064;-76
2023/07/25 06:12:13;;;;;;;4.40;3.25;;;;;;;23.18;100.00;99533.22;4905561;29;20059;-76
2023/07/25 06:14:41;;;;;;;3.55;2.83;;;;;;;23.16;100.00;99544.00;4904810;29;20078;-76
2023/07/25 06:17:10;;;;;;;5.80;3.17;;;;;;;22.99;100.00;99531.53;4899325;29;20049;-75
2023/07/25 06:19:38;;;;;;;4.60;2.83;;;;;;;23.13;100.00;99530.81;4898963;29;20063;-76
2023/07/25 06:22:07;;;;;;;3.45;2.28;;;;;;;23.11;100.00;99536.78;4882543;29;20419;-76
2023/07/25 06:24:35;;;;;;;2.20;1.83;;;;;;;23.16;100.00;99519.66;4898853;29;20045;-75
2023/07/25 06:27:03;;;;;;;2.25;1.73;;;;;;;23.13;100.00;99503.72;4898827;29;20052;-76
2023/07/25 06:29:31;;;;;;;4.50;1.95;;;;;;;23.17;100.00;99487.75;4898330;29;20512;-75
2023/07/25 06:32:00;;;;;;;3.05;1.58;;;;;;;23.15;100.00;99467.03;4898613;29;20119;-76
2023/07/25 06:34:28;;;;;;;2.78;1.42;;;;;;;23.10;100.00;99476.59;4898537;29;20079;-76
2023/07/25 06:36:56;;;;;;;3.85;1.80;;;;;;;23.03;100.00;99487.72;4910229;29;20407;-76
2023/07/25 06:39:25;;;;;;;3.78;1.33;;;;;;;22.85;100.00;99482.88;4910883;29;20059;-76
2023/07/25 06:41:53;;;;;;;1.67;1.33;;;;;;;23.04;100.00;99470.59;4898945;29;20091;-75
2023/07/25 06:44:23;;;;;;;1.27;1.13;;;;;;;23.13;100.00;99473.03;4888914;29;20052;-75
2023/07/25 06:46:51;;;;;;;3.03;1.10;;;;;;;23.17;100.00;99481.41;4900849;29;20100;-76
2023/07/25 06:49:20;;;;;;;1.70;1.13;;;;;;;22.98;100.00;99499.25;4917831;29;20056;-76
2023/07/25 06:51:48;;;;;;;1.67;1.30;;;;;;;23.12;100.00;99501.31;4917684;29;20060;-76
2023/07/25 06:54:17;;;;;;;2.70;1.10;;;;;;;23.22;100.00;99494.97;4911531;29;20044;-76
2023/07/25 06:56:45;;;;;;;2.78;1.27;;;;;;;23.40;100.00;99481.09;4902133;29;20063;-76
2023/07/25 06:59:13;;;;;;;2.13;1.42;;;;;;;23.48;100.00;99479.13;4909755;29;20065;-76
2023/07/25 07:01:41;;;;;;;2.92;1.33;;;;;;;23.40;100.00;99452.41;4901862;29;20052;-76
2023/07/25 07:04:10;;;;;;;3.88;1.25;;;;;;;23.48;100.00;99446.44;4899473;29;20064;-76
2023/07/25 07:06:38;;;;;;;3.47;1.23;;;;;;;23.69;100.00;99438.44;4903723;29;20044;-75
2023/07/25 07:09:06;;;;;;;1.85;1.08;;;;;;;23.97;100.00;99442.44;4908689;29;20060;-75
2023/07/25 07:11:35;;;;;;;1.88;1.20;;;;;;;24.11;100.00;99413.72;4911005;29;20059;-75
2023/07/25 07:14:04;;;;;;;1.95;1.30;;;;;;;24.13;98.51;99400.94;4909021;29;20434;-76
2023/07/25 07:16:32;;;;;;;1.73;1.15;;;;;;;24.06;100.00;99381.38;4901300;29;20052;-75
2023/07/25 07:19:01;;;;;;;2.88;1.60;;;;;;;24.02;100.00;99400.13;4899835;29;20060;-76
2023/07/25 07:21:29;;;;;;;1.20;1.10;;;;;;;23.94;100.00;99429.28;4908797;29;20055;-76
2023/07/25 07:23:58;;;;;;;1.50;1.00;;;;;;;23.89;100.00;99442.47;4898627;29;20053;-76
2023/07/25 07:26:26;;;;;;;2.95;1.38;;;;;;;23.83;100.00;99435.66;4901188;29;20048;-76
2023/07/25 07:28:54;;;;;;;1.42;1.17;;;;;;;23.89;100.00;99447.22;4916116;29;20411;-76
2023/07/25 07:31:24;;;;;;;2.35;1.48;;;;;;;23.81;100.00;99463.22;4899379;29;20053;-76
2023/07/25 07:33:52;;;;;;;1.50;0.95;;;;;;;23.70;100.00;99465.97;4897402;29;20385;-76
2023/07/25 07:36:20;;;;;;;1.40;1.20;;;;;;;23.57;100.00;99457.22;4903600;29;20052;-76
2023/07/25 07:38:49;;;;;;;2.50;1.13;;;;;;;23.54;100.00;99393.78;4916248;29;20060;-76
2023/07/25 07:41:17;;;;;;;2.92;1.50;;;;;;;23.43;100.00;99379.00;4890195;29;20076;-75
2023/07/25 07:43:45;;;;;;;2.53;1.30;;;;;;;23.31;100.00;99402.53;4909989;29;20055;-75
2023/07/25 07:46:13;;;;;;;2.05;1.05;;;;;;;23.25;100.00;99416.03;4898211;29;20052;-75
2023/07/25 07:48:43;;;;;;;1.60;1.45;;;;;;;23.39;100.00;99445.19;4897439;29;20423;-75
2023/07/25 07:51:11;;;;;;;2.63;1.42;;;;;;;23.38;100.00;99451.97;4916025;29;20091;-75
2023/07/25 07:53:40;;;;;;;2.30;1.45;;;;;;;23.29;100.00;99455.09;4902609;29;20056;-75
2023/07/25 07:56:10;;;;;;;2.42;1.35;;;;;;;23.12;100.00;99421.19;4881584;29;20091;-76
2023/07/25 07:58:38;;;;;;;5.90;1.38;;;;;;;23.11;100.00;99393.69;4898844;29;20055;-75
2023/07/25 08:01:23;;;;;;;1.83;1.42;;;;;;;23.20;100.00;99405.25;4900779;29;20057;-75
2023/07/25 08:03:52;;;;;;;3.05;1.40;;;;;;;23.30;100.00;99401.69;4896722;29;20061;-74
2023/07/25 08:06:20;;;;;;;1.80;1.63;;;;;;;23.22;100.00;99374.97;4904668;29;20444;-75
2023/07/25 08:08:48;;;;;;;2.47;1.55;;;;;;;23.29;100.00;99376.97;4904199;29;20064;-74
2023/07/25 08:11:17;;;;;;;2.55;2.05;;;;;;;23.41;100.00;99395.38;4904690;29;20420;-74
2023/07/25 08:13:45;;;;;;;2.38;1.70;;;;;;;23.47;100.00;99414.09;4905917;29;20048;-74
2023/07/25 08:16:14;;;;;;;4.28;1.88;;;;;;;23.45;100.00;99419.28;4897563;29;20146;-74
2023/07/25 08:18:42;;;;;;;5.13;2.50;;;;;;;23.29;100.00;99460.69;4901298;29;20380;-75
2023/07/25 08:21:10;;;;;;;4.20;2.70;;;;;;;23.39;100.00;99566.03;4899417;29;20059;-76
2023/07/25 08:23:38;;;;;;;3.38;2.30;;;;;;;23.49;100.00;99637.06;4896408;29;20072;-76
2023/07/25 08:26:07;;;;;;;4.00;2.60;;;;;;;23.48;100.00;99649.41;4913128;29;20534;-75
2023/07/25 08:28:36;;;;;;;2.88;2.50;;;;;;;23.41;100.00;99629.84;4909415;29;20052;-76
2023/07/25 08:31:06;;;;;;;3.90;2.40;;;;;;;23.42;100.00;99537.31;4909484;29;20064;-76
2023/07/25 08:33:37;;;;;;;4.60;2.42;;;;;;;23.37;100.00;99551.69;4901140;29;20052;-76
2023/07/25 08:36:05;;;;;;;5.15;2.38;;;;;;;23.11;100.00;99519.25;4914257;29;20069;-75
2023/07/25 08:38:34;;;;;;;8.48;2.53;;;;;;;23.09;100.00;99548.34;4894151;29;20443;-76
2023/07/25 08:41:19;;;;;;;3.30;2.38;;;;;;;23.05;100.00;99610.88;4909830;29;20411;-75
2023/07/25 08:43:49;;;;;;;3.60;2.53;;;;;;;22.90;100.00;99615.56;4904651;29;20048;-75
2023/07/25 08:46:19;;;;;;;3.22;2.25;;;;;;;22.97;100.00;99618.41;4911329;29;20056;-75
2023/07/25 08:48:48;;;;;;;4.13;2.60;;;;;;;22.83;100.00;99591.22;4909001;29;20052;-76
2023/07/25 08:51:21;;;;;;;3.60;2.20;;;;;;;22.98;100.00;99567.03;4914401;29;20059;-76
2023/07/25 08:54:00;;;;;;;4.18;2.58;;;;;;;23.04;100.00;99561.84;4914451;29;20287;-76
2023/07/25 08:56:29;;;;;;;3.83;2.30;;;;;;;23.00;100.00;99574.97;4909298;29;20083;-76
2023/07/25 08:58:58;;;;;;;2.83;2.38;;;;;;;23.11;100.00;99577.84;4886399;29;20059;-75
2023/07/25 09:01:27;;;;;;;3.13;2.28;;;;;;;23.17;100.00;99588.22;4914228;29;20062;-76
2023/07/25 09:04:00;;;;;;;4.38;2.40;;;;;;;23.22;100.00;99582.28;4882697;29;20068;-76
2023/07/25 09:06:30;;;;;;;4.22;2.70;;;;;;;23.23;100.00;99585.88;4902299;29;20427;-76
2023/07/25 09:09:00;;;;;;;3.17;2.80;;;;;;;23.22;100.00;99573.13;4906468;29;20060;-76
2023/07/25 09:11:29;;;;;;;2.50;2.30;;;;;;;23.42;100.00;99578.41;4883887;29;20059;-76
2023/07/25 09:13:58;;;;;;;5.40;2.85;;;;;;;23.58;100.00;99590.03;4897536;29;20490;-76
2023/07/25 09:16:27;;;;;;;4.90;2.85;;;;;;;23.53;100.00;99590.41;4904106;29;20052;-75
2023/07/25 09:18:56;;;;;;;4.60;3.10;;;;;;;23.44;100.00;99590.78;4904425;29;20063;-76
2023/07/25 09:21:24;;;;;;;5.13;3.03;;;;;;;23.60;100.00;99598.81;4914939;29;20126;-76
2023/07/25 09:23:58;;;;;;;3.13;2.17;;;;;;;23.65;100.00;99594.81;4908293;29;20048;-76
2023/07/25 09:26:28;;;;;;;2.55;2.33;;;;;;;23.74;100.00;99577.69;4909609;29;20380;-75
2023/07/25 09:28:58;;;;;;;4.10;2.80;;;;;;;23.75;100.00;99562.53;4902403;29;20408;-76
2023/07/25 09:31:29;;;;;;;5.38;2.03;;;;;;;23.86;100.00;99560.56;4911411;29;20060;-76
2023/07/25 09:33:57;;;;;;;3.30;2.50;;;;;;;23.97;100.00;99560.59;4899051;29;20408;-77
2023/07/25 09:36:30;;;;;;;4.75;1.92;;;;;;;24.11;100.00;99559.84;4913205;29;20078;-75
2023/07/25 09:38:59;;;;;;;6.28;2.50;;;;;;;24.15;100.00;99549.47;4902230;29;20416;-76
2023/07/25 09:41:27;;;;;;;3.08;2.58;;;;;;;24.16;100.00;99559.44;4897017;29;20385;-77
2023/07/25 09:44:05;;;;;;;4.07;2.75;;;;;;;24.27;100.00;99547.47;4908449;29;20413;-76
2023/07/25 09:46:33;;;;;;;2.90;2.13;;;;;;;24.42;100.00;99549.06;4896709;29;20056;-76
2023/07/25 09:49:02;;;;;;;3.75;2.60;;;;;;;24.54;100.00;99552.66;4907316;29;20400;-75
2023/07/25 09:51:31;;;;;;;3.47;2.55;;;;;;;24.49;100.00;99541.88;4914299;29;20427;-76
2023/07/25 09:54:05;;;;;;;6.75;2.80;;;;;;;24.62;100.00;99531.03;4913916;29;20067;-76
2023/07/25 09:56:34;;;;;;;2.97;2.38;;;;;;;24.74;100.00;99532.63;4905705;29;20056;-75
2023/07/25 09:59:06;;;;;;;4.45;2.88;;;;;;;24.85;100.00;99525.03;4913872;29;20052;-76
2023/07/25 10:01:37;;;;;;;4.38;2.00;;;;;;;25.12;100.00;99510.53;4896507;29;20052;-75
2023/07/25 10:04:07;;;;;;;2.80;2.00;;;;;;;25.22;100.00;99512.50;4895439;29;20055;-75
2023/07/25 10:06:36;;;;;;;5.00;1.95;;;;;;;25.30;100.00;99515.25;4911157;29;20052;-75
2023/07/25 10:09:06;;;;;;;1.65;1.55;;;;;;;25.17;100.00;99498.94;4914170;29;20523;-76
2023/07/25 10:11:36;;;;;;;3.17;1.70;;;;;;;25.38;100.00;99505.63;4908069;29;20056;-75
2023/07/25 10:14:05;;;;;;;2.13;1.38;;;;;;;25.60;100.00;99491.53;4917162;29;20146;-76
2023/07/25 10:16:38;;;;;;;1.60;1.40;;;;;;;25.70;99.08;99485.06;4915452;29;20052;-75
2023/07/25 10:19:07;;;;;;;3.05;1.40;;;;;;;25.99;100.00;99484.84;4901425;29;20052;-76
2023/07/25 10:21:48;;;;;;;1.63;1.02;;;;;;;25.97;98.06;99490.06;4918794;29;20059;-76
2023/07/25 10:24:20;;;;;;;2.13;1.50;;;;;;;26.17;98.93;99492.31;4918623;29;20395;-76
2023/07/25 10:26:56;;;;;;;1.42;1.30;;;;;;;26.33;92.21;99497.38;4918581;29;20056;-76
2023/07/25 10:29:49;;;;;;;1.55;1.30;;;;;;;26.45;90.42;99486.88;4920196;29;20048;-76
2023/07/25 10:32:41;;;;;;;2.58;1.23;;;;;;;26.50;97.31;99480.81;4920972;29;20056;-75
2023/07/25 10:35:10;;;;;;;0.98;0.93;;;;;;;26.73;88.95;99482.94;4919158;29;20063;-76
2023/07/25 10:37:45;;;;;;;2.35;1.40;;;;;;;26.67;84.87;99476.19;4919668;29;20056;-76
2023/07/25 10:40:15;;;;;;;2.15;1.30;;;;;;;26.80;86.94;99468.03;4902620;29;20095;-76
2023/07/25 10:42:50;;;;;;;2.05;1.00;;;;;;;26.60;87.52;99470.69;4917950;29;20056;-76
2023/07/25 10:45:34;;;;;;;1.65;1.00;;;;;;;26.49;85.31;99468.00;4904085;29;20575;-76
2023/07/25 10:48:28;;;;;;;3.38;1.20;;;;;;;26.42;81.93;99466.06;4899601;29;20059;-76
2023/07/25 10:50:57;;;;;;;2.20;1.10;;;;;;;26.57;88.01;99458.28;4907129;29;20060;-76
2023/07/25 10:53:27;;;;;;;2.63;1.15;;;;;;;26.65;86.20;99450.59;4911146;29;20412;-76
2023/07/25 10:56:05;;;;;;;1.60;1.00;;;;;;;26.77;83.26;99452.84;4899397;29;20060;-77
2023/07/25 10:58:59;;;;;;;1.20;1.10;;;;;;;26.74;77.57;99452.88;4904798;29;20040;-76
2023/07/25 11:01:43;;;;;;;1.42;0.95;;;;;;;26.99;79.73;99451.81;4916967;29;20056;-76
2023/07/25 11:04:28;;;;;;;2.20;1.05;;;;;;;27.01;77.93;99452.16;4916588;29;20432;-76
2023/07/25 11:07:13;;;;;;;1.38;0.90;;;;;;;27.15;79.54;99442.75;4916669;29;20055;-76
2023/07/25 11:09:43;;;;;;;1.50;1.10;;;;;;;27.15;80.16;99434.34;4917419;29;20412;-76
2023/07/25 11:12:13;;;;;;;0.95;0.80;;;;;;;27.24;75.17;99445.84;4917200;29;20056;-76
2023/07/25 11:14:43;;;;;;;2.55;1.20;;;;;;;27.34;77.44;99441.31;4916639;29;20056;-77
2023/07/25 11:17:12;;;;;;;1.17;0.75;;;;;;;27.32;71.75;99430.47;4916937;29;20067;-76
2023/07/25 11:19:41;;;;;;;1.00;0.90;;;;;;;27.43;73.66;99429.53;4917566;29;20052;-77
2023/07/25 11:22:12;;;;;;;1.13;0.60;;;;;;;27.47;74.51;99435.91;4903155;29;20056;-75
2023/07/25 11:24:48;;;;;;;0.98;0.93;;;;;;;27.56;73.53;99436.16;4898253;29;20381;-75
2023/07/25 11:27:18;;;;;;;1.20;0.98;;;;;;;27.72;74.09;99429.13;4897883;29;20056;-75
2023/07/25 11:29:46;;;;;;;1.10;1.00;;;;;;;27.93;74.56;99427.16;4881427;29;20067;-75
2023/07/25 11:32:14;;;;;;;1.23;1.13;;;;;;;28.10;72.66;99416.81;4898405;29;20060;-75
2023/07/25 11:34:49;;;;;;;1.40;1.00;;;;;;;28.00;71.66;99418.63;4906793;29;20052;-75
2023/07/25 11:37:18;;;;;;;2.17;0.70;;;;;;;28.10;68.15;99420.41;4904339;29;20060;-75
2023/07/25 11:39:46;;;;;;;0.88;0.75;;;;;;;28.01;65.51;99425.81;4903191;29;20052;-75
2023/07/25 11:42:14;;;;;;;1.08;0.98;;;;;;;28.08;70.92;99420.06;4912393;29;20048;-75
2023/07/25 11:44:44;;;;;;;1.63;0.73;;;;;;;28.20;70.33;99415.03;4917822;29;20514;-74
2023/07/25 11:47:12;;;;;;;1.52;1.00;;;;;;;28.03;70.64;99414.94;4918025;29;20404;-76
2023/07/25 11:49:41;;;;;;;2.55;1.10;;;;;;;28.10;71.56;99417.59;4917436;29;20707;-76
2023/07/25 11:52:23;;;;;;;1.48;0.93;;;;;;;28.05;67.82;99412.47;4917739;29;20051;-76
2023/07/25 11:54:51;;;;;;;1.88;1.02;;;;;;;28.15;67.64;99411.50;4917076;29;20381;-76
2023/07/25 11:57:19;;;;;;;0.93;0.80;;;;;;;28.12;66.28;99394.69;4900369;29;20063;-76
2023/07/25 11:59:53;;;;;;;1.38;1.05;;;;;;;28.19;67.28;99400.19;4916896;29;20055;-76
2023/07/25 12:02:26;;;;;;;1.00;0.90;;;;;;;28.36;68.20;99401.09;4916938;29;20063;-76
2023/07/25 12:04:54;;;;;;;1.23;0.93;;;;;;;28.48;67.69;99391.22;4917037;29;20062;-76
2023/07/25 12:07:23;;;;;;;1.55;1.05;;;;;;;28.61;63.41;99384.94;4917489;29;20407;-76
2023/07/25 12:09:55;;;;;;;0.82;0.82;;;;;;;28.86;65.16;99386.41;4916930;29;20396;-76
2023/07/25 12:12:23;;;;;;;1.10;1.00;;;;;;;28.96;64.72;99386.22;4899793;29;20518;-76
2023/07/25 12:15:00;;;;;;;0.90;0.90;;;;;;;29.03;66.21;99376.81;4915784;29;20499;-77
2023/07/25 12:17:45;;;;;;;1.27;1.15;;;;;;;29.00;63.64;99385.34;4915576;29;20403;-76
2023/07/25 12:20:18;;;;;;;1.67;1.08;;;;;;;29.09;65.37;99375.03;4909262;29;20699;-74
2023/07/25 12:22:48;;;;;;;1.47;1.03;;;;;;;29.23;66.99;99381.59;4915379;29;20048;-75
2023/07/25 12:25:18;;;;;;;1.20;1.00;;;;;;;29.20;66.75;99377.63;4915649;29;20404;-76
2023/07/25 12:27:48;;;;;;;2.15;1.25;;;;;;;29.43;66.79;99375.09;4896599;29;20423;-75
2023/07/25 12:30:17;;;;;;;1.63;1.20;;;;;;;29.41;62.21;99367.06;4912074;29;20060;-75